Time;durP1;ratioP1;P1;durP2;ratioP2;P2;SDS_P1;SDS_P2;PMS_P1;PMS_P2;Temp;Humidity;BMP_temperature;BMP_pressure;BME280_temperature;BME280_humidity;BME280_pressure;Samples;Min_cycle;Max_cycle;Signal;HPM_P1;HPM_P2
2022/12/19 00:01:47;;;;;;;0.75;0.75;;;;;;;0.45;74.57;101526.41;5149028;28;20072;-78
2022/12/19 00:04:18;;;;;;;1.15;1.15;;;;;;;0.58;74.23;101528.47;5148611;28;20589;-79
2022/12/19 00:06:49;;;;;;;1.05;1.05;;;;;;;0.45;75.15;101526.41;5160935;28;20096;-80
2022/12/19 00:09:20;;;;;;;2.42;2.05;;;;;;;0.43;74.99;101516.00;5148222;28;20058;-80
2022/12/19 00:11:51;;;;;;;2.47;2.38;;;;;;;0.53;74.51;101506.81;5147196;28;20049;-79
2022/12/19 00:14:21;;;;;;;0.70;0.70;;;;;;;0.35;76.02;101504.59;5150901;28;20122;-80
2022/12/19 00:16:52;;;;;;;1.88;1.75;;;;;;;0.47;75.16;101498.88;5168788;28;20121;-80
2022/12/19 00:19:22;;;;;;;1.88;1.77;;;;;;;0.50;74.73;101498.97;5156526;28;20041;-80
2022/12/19 00:21:53;;;;;;;2.35;1.98;;;;;;;0.37;75.52;101491.75;5137925;28;20343;-80
2022/12/19 00:24:23;;;;;;;1.98;1.88;;;;;;;0.43;75.81;101484.16;5150402;28;20048;-80
2022/12/19 00:26:54;;;;;;;1.88;1.77;;;;;;;0.47;75.55;101485.97;5133192;28;20433;-77
2022/12/19 00:29:24;;;;;;;2.78;2.58;;;;;;;0.44;76.48;101503.97;5169553;28;20116;-80
2022/12/19 00:31:57;;;;;;;3.97;3.72;;;;;;;0.55;75.50;101497.38;5166030;28;20038;-80
2022/12/19 00:34:27;;;;;;;2.88;2.70;;;;;;;0.49;75.36;101502.38;5173940;28;20026;-80
2022/12/19 00:36:58;;;;;;;2.10;2.00;;;;;;;0.54;74.73;101505.97;5158432;28;20046;-80
2022/12/19 00:39:28;;;;;;;3.25;2.97;;;;;;;0.71;74.84;101497.78;5155927;28;20038;-81
2022/12/19 00:41:58;;;;;;;2.15;1.95;;;;;;;0.66;74.80;101486.47;5175147;28;20043;-79
2022/12/19 00:44:29;;;;;;;2.67;2.50;;;;;;;0.55;76.45;101461.22;5182879;28;20038;-80
2022/12/19 00:46:59;;;;;;;2.58;2.47;;;;;;;0.63;75.86;101467.47;5180714;28;20053;-80
2022/12/19 00:49:30;;;;;;;0.63;0.63;;;;;;;0.55;76.54;101458.66;5182232;28;20034;-79
2022/12/19 00:52:00;;;;;;;2.03;1.90;;;;;;;0.57;76.85;101456.97;5169817;28;20361;-79
2022/12/19 00:54:31;;;;;;;2.10;2.00;;;;;;;0.62;75.49;101452.78;5187163;28;20043;-80
2022/12/19 00:57:01;;;;;;;1.00;1.00;;;;;;;0.77;75.09;101435.97;5192464;28;20030;-80
2022/12/19 00:59:32;;;;;;;1.20;1.20;;;;;;;0.60;77.10;101439.00;5170411;28;20066;-80
2022/12/19 01:02:02;;;;;;;2.22;2.10;;;;;;;0.73;75.80;101454.78;5166649;28;20034;-79
2022/12/19 01:04:33;;;;;;;4.47;3.35;;;;;;;0.60;76.08;101439.00;5166588;28;20023;-81
2022/12/19 01:07:06;;;;;;;3.35;3.13;;;;;;;0.62;76.54;101441.59;5172809;28;20214;-80
2022/12/19 01:09:37;;;;;;;1.02;1.02;;;;;;;0.68;76.66;101441.75;5176740;28;20029;-81
2022/12/19 01:14:59;;;;;;;0.98;0.98;;;;;;;0.68;77.15;101425.41;5154553;28;20038;-81
2022/12/19 01:17:29;;;;;;;1.23;1.23;;;;;;;0.65;76.63;101438.22;5140377;28;20046;-81
2022/12/19 01:20:00;;;;;;;1.85;1.75;;;;;;;0.70;76.25;101436.66;5150857;28;20030;-81
2022/12/19 01:22:30;;;;;;;4.53;4.22;;;;;;;0.65;76.63;101446.88;5145160;28;20715;-81
2022/12/19 01:25:01;;;;;;;2.05;1.90;;;;;;;0.73;75.97;101466.00;5141961;28;20029;-80
2022/12/19 01:27:32;;;;;;;1.20;1.20;;;;;;;0.75;75.38;101469.47;5168953;28;20291;-81
2022/12/19 01:30:04;;;;;;;1.27;1.27;;;;;;;0.89;75.36;101462.09;5140529;28;20037;-80
2022/12/19 01:32:35;;;;;;;0.93;0.93;;;;;;;0.80;75.88;101461.00;5164909;28;20031;-81
2022/12/19 01:35:06;;;;;;;1.20;1.20;;;;;;;0.69;76.73;101450.41;5141941;28;20026;-81
2022/12/19 01:37:36;;;;;;;1.65;1.55;;;;;;;0.49;78.49;101440.41;5156045;28;20046;-81
2022/12/19 01:40:10;;;;;;;0.95;0.95;;;;;;;0.57;77.50;101438.91;5174657;28;20030;-80
2022/12/19 01:42:41;;;;;;;0.85;0.85;;;;;;;0.71;76.33;101438.38;5153048;28;20078;-81
2022/12/19 01:45:14;;;;;;;4.15;3.75;;;;;;;0.78;76.51;101437.72;5175896;28;20101;-80
2022/12/19 01:47:54;;;;;;;1.63;1.52;;;;;;;0.84;76.85;101432.69;5152795;28;20082;-81
2022/12/19 01:50:33;;;;;;;3.00;2.80;;;;;;;0.76;76.87;101432.47;5175701;28;20034;-80
2022/12/19 01:53:08;;;;;;;1.98;1.90;;;;;;;0.85;76.41;101423.22;5163447;28;20116;-81
2022/12/19 01:55:40;;;;;;;2.40;2.30;;;;;;;0.84;76.19;101432.69;5152346;28;20042;-81
2022/12/19 01:58:12;;;;;;;0.75;0.75;;;;;;;0.92;76.66;101412.19;5172683;28;20109;-81
2022/12/19 02:00:43;;;;;;;1.60;1.50;;;;;;;0.92;76.72;101405.31;5148230;28;20042;-80
2022/12/19 02:03:22;;;;;;;1.52;0.90;;;;;;;0.87;77.01;101400.88;5161641;28;20037;-81
2022/12/19 02:05:54;;;;;;;5.65;3.03;;;;;;;0.89;76.83;101405.25;5173041;28;20038;-80
2022/12/19 02:08:27;;;;;;;2.50;2.33;;;;;;;0.98;76.41;101390.78;5171601;28;20044;-81
2022/12/19 02:10:57;;;;;;;1.60;1.58;;;;;;;0.91;76.99;101394.97;5138420;28;20156;-81
2022/12/19 02:13:28;;;;;;;3.55;3.35;;;;;;;0.92;77.09;101392.41;5144594;28;20058;-81
2022/12/19 02:16:15;;;;;;;3.05;2.00;;;;;;;0.85;77.61;101385.34;5151332;28;20540;-80
2022/12/19 02:19:23;;;;;;;1.55;1.52;;;;;;;0.81;78.47;101386.09;5160214;28;20547;-81
2022/12/19 02:22:02;;;;;;;2.08;1.90;;;;;;;1.01;76.62;101365.03;5154234;28;20045;-82
2022/12/19 02:24:42;;;;;;;1.85;1.75;;;;;;;1.02;76.63;101353.84;5158982;28;20036;-81
2022/12/19 02:27:33;;;;;;;3.42;2.80;;;;;;;0.99;76.51;101341.75;5141642;28;20030;-80
2022/12/19 02:30:06;;;;;;;0.95;0.95;;;;;;;0.97;77.38;101338.25;5155199;28;20022;-81
2022/12/19 02:32:57;;;;;;;1.33;1.33;;;;;;;0.88;78.55;101327.69;5164421;28;20049;-81
2022/12/19 02:35:53;;;;;;;2.00;1.90;;;;;;;1.10;77.46;101331.63;5150629;28;20030;-81
2022/12/19 02:38:41;;;;;;;2.67;2.50;;;;;;;1.03;76.55;101319.41;5152059;28;20061;-81
2022/12/19 02:41:19;;;;;;;1.30;1.25;;;;;;;1.07;76.74;101323.81;5157143;28;20038;-81
2022/12/19 02:43:54;;;;;;;0.50;0.50;;;;;;;1.06;77.26;101314.31;5137537;28;20452;-81
2022/12/19 02:46:27;;;;;;;3.58;3.28;;;;;;;1.05;76.89;101312.56;5184173;28;20570;-81
2022/12/19 02:48:58;;;;;;;1.13;1.13;;;;;;;1.18;76.38;101314.56;5157662;28;20052;-80
2022/12/19 02:51:29;;;;;;;2.85;2.72;;;;;;;1.14;76.90;101312.75;5158362;28;20488;-81
2022/12/19 02:53:59;;;;;;;0.90;0.90;;;;;;;1.13;76.72;101316.16;5153538;28;20034;-81
2022/12/19 02:56:58;;;;;;;1.90;1.80;;;;;;;1.16;76.73;101313.66;5169156;28;20042;-81
2022/12/19 02:59:53;;;;;;;0.85;0.85;;;;;;;1.25;76.08;101319.03;5169342;28;20026;-80
2022/12/19 03:03:00;;;;;;;2.70;1.30;;;;;;;1.21;76.35;101313.75;5156382;28;20571;-81
2022/12/19 03:05:50;;;;;;;1.17;1.17;;;;;;;1.24;75.70;101319.88;5173398;28;20040;-79
2022/12/19 03:08:32;;;;;;;3.80;1.42;;;;;;;1.28;76.01;101309.59;5177560;28;20054;-78
2022/12/19 03:11:10;;;;;;;2.77;2.57;;;;;;;1.28;76.77;101310.47;5148920;28;20681;-81
2022/12/19 03:13:52;;;;;;;0.80;0.80;;;;;;;1.25;76.91;101305.22;5159172;28;20066;-81
2022/12/19 03:16:23;;;;;;;3.40;3.10;;;;;;;1.34;76.37;101314.88;5171944;28;20101;-80
2022/12/19 03:18:54;;;;;;;1.45;1.45;;;;;;;1.32;76.10;101317.47;5153201;28;20056;-81
2022/12/19 03:21:37;;;;;;;2.13;1.92;;;;;;;1.32;76.57;101317.47;5179067;28;20401;-80
2022/12/19 03:24:10;;;;;;;2.35;1.95;;;;;;;1.28;76.70;101310.47;5154291;28;20116;-81
2022/12/19 03:26:50;;;;;;;1.42;1.38;;;;;;;1.33;76.77;101302.81;5137597;28;20034;-79
2022/12/19 03:29:25;;;;;;;1.20;1.20;;;;;;;1.36;77.24;101308.03;5134713;28;20026;-80
2022/12/19 03:31:58;;;;;;;1.85;1.75;;;;;;;1.44;76.69;101301.31;5165579;28;20054;-80
2022/12/19 03:34:40;;;;;;;0.52;0.52;;;;;;;1.44;76.88;101290.97;5166636;28;20104;-80
2022/12/19 03:37:19;;;;;;;1.63;1.52;;;;;;;1.40;77.08;101283.97;5163310;28;20065;-80
2022/12/19 03:39:56;;;;;;;3.20;2.03;;;;;;;1.41;77.46;101290.91;5153456;28;20070;-79
2022/12/19 03:45:39;;;;;;;1.88;1.80;;;;;;;1.45;76.89;101277.16;5164391;28;20128;-80
2022/12/19 03:48:40;;;;;;;3.75;3.45;;;;;;;1.48;77.10;101279.81;5171084;28;20061;-80
2022/12/19 03:51:45;;;;;;;1.45;1.42;;;;;;;1.53;76.87;101274.75;5129736;28;20064;-80
2022/12/19 03:54:19;;;;;;;2.53;2.33;;;;;;;1.47;77.40;101278.06;5151775;28;20025;-80
2022/12/19 03:56:59;;;;;;;5.18;2.88;;;;;;;1.53;77.19;101279.91;5163441;28;20070;-81
2022/12/19 03:59:41;;;;;;;1.20;1.17;;;;;;;1.52;77.41;101267.81;5149588;28;20041;-79
2022/12/19 04:02:15;;;;;;;6.43;3.28;;;;;;;1.51;77.94;101268.66;5142114;28;20034;-79
2022/12/19 04:04:51;;;;;;;1.08;1.08;;;;;;;1.59;78.84;101266.22;5162054;28;20101;-79
2022/12/19 04:07:23;;;;;;;1.33;1.33;;;;;;;1.64;77.83;101262.00;5126440;28;20676;-80
2022/12/19 04:09:56;;;;;;;2.55;2.45;;;;;;;1.60;77.70;101265.41;5142343;28;20649;-79
2022/12/19 04:12:32;;;;;;;1.10;0.80;;;;;;;1.69;78.16;101260.41;5153525;28;20042;-79
2022/12/19 04:15:04;;;;;;;4.97;1.92;;;;;;;1.69;77.62;101260.41;5140529;28;20056;-80
2022/12/19 04:17:44;;;;;;;1.27;1.27;;;;;;;1.70;77.29;101263.00;5153757;28;20084;-79
2022/12/19 04:20:20;;;;;;;1.60;1.50;;;;;;;1.68;77.88;101258.66;5142755;28;20037;-80
2022/12/19 04:22:55;;;;;;;1.92;1.83;;;;;;;1.72;78.99;101270.78;5150974;28;20392;-79
2022/12/19 04:25:29;;;;;;;1.30;1.30;;;;;;;1.71;78.40;101269.03;5132877;28;20033;-80
2022/12/19 04:28:21;;;;;;;0.95;0.95;;;;;;;1.73;78.45;101275.13;5166383;28;20023;-80
2022/12/19 04:30:53;;;;;;;1.27;1.27;;;;;;;1.73;78.83;101272.53;5164659;28;20047;-80
2022/12/19 04:33:23;;;;;;;0.77;0.77;;;;;;;1.69;79.06;101265.56;5162892;28;20491;-80
2022/12/19 04:35:54;;;;;;;2.13;2.03;;;;;;;1.69;79.56;101273.34;5165872;28;20074;-79
2022/12/19 04:38:25;;;;;;;1.05;0.90;;;;;;;1.76;79.34;101272.59;5153082;28;20484;-79
2022/12/19 04:40:56;;;;;;;1.38;1.38;;;;;;;1.75;78.78;101270.84;5153658;28;20039;-81
2022/12/19 04:43:26;;;;;;;1.95;1.85;;;;;;;1.87;77.63;101255.53;5167329;28;20073;-79
2022/12/19 04:45:57;;;;;;;2.53;2.33;;;;;;;1.86;78.19;101248.59;5148424;28;20039;-80
2022/12/19 04:48:27;;;;;;;1.70;1.60;;;;;;;1.82;78.45;101261.50;5167768;28;20030;-79
2022/12/19 04:50:58;;;;;;;2.50;2.38;;;;;;;1.81;78.52;101259.75;5153817;28;20061;-80
2022/12/19 04:53:29;;;;;;;2.00;1.90;;;;;;;1.83;78.92;101253.75;5154904;28;20241;-79
2022/12/19 04:56:05;;;;;;;2.05;1.95;;;;;;;1.86;78.36;101253.78;5165195;28;20038;-79
2022/12/19 04:58:36;;;;;;;1.27;1.27;;;;;;;1.86;78.74;101253.78;5148361;28;20034;-80
2022/12/19 05:01:07;;;;;;;1.90;1.80;;;;;;;1.90;78.56;101252.13;5159832;28;20047;-80
2022/12/19 05:03:38;;;;;;;1.40;1.30;;;;;;;1.93;78.25;101256.50;5158627;28;20022;-79
2022/12/19 05:06:12;;;;;;;0.70;0.70;;;;;;;1.93;78.31;101244.41;5145745;28;20125;-80
2022/12/19 05:08:43;;;;;;;2.38;1.98;;;;;;;1.95;77.91;101236.66;5168728;28;20026;-81
2022/12/19 05:11:15;;;;;;;2.63;2.42;;;;;;;1.97;77.90;101234.97;5180170;28;20090;-80
2022/12/19 05:13:46;;;;;;;1.83;1.70;;;;;;;1.96;78.61;101228.06;5167063;28;20033;-79
2022/12/19 05:16:16;;;;;;;22.67;5.22;;;;;;;1.96;78.88;101225.47;5138195;28;20033;-80
2022/12/19 05:18:47;;;;;;;0.85;0.82;;;;;;;1.98;78.58;101224.69;5173668;28;20085;-80
2022/12/19 05:21:17;;;;;;;1.13;1.13;;;;;;;2.03;78.57;101225.59;5138901;28;20042;-79
2022/12/19 05:23:49;;;;;;;5.10;2.60;;;;;;;2.04;78.65;101221.28;5152913;28;20022;-80
2022/12/19 05:26:19;;;;;;;3.35;1.13;;;;;;;2.07;78.31;101236.03;5153712;28;20031;-79
2022/12/19 05:28:50;;;;;;;5.75;2.00;;;;;;;2.09;78.76;101240.38;5153291;28;20052;-80
2022/12/19 05:31:21;;;;;;;0.60;0.60;;;;;;;2.10;78.58;101249.88;5155570;28;20078;-79
2022/12/19 05:33:51;;;;;;;2.80;2.60;;;;;;;2.10;79.08;101244.72;5150245;28;20054;-80
2022/12/19 05:36:22;;;;;;;1.92;1.83;;;;;;;2.12;79.47;101250.75;5159632;28;20038;-80
2022/12/19 05:38:53;;;;;;;3.05;2.85;;;;;;;2.14;79.72;101254.25;5158035;28;20027;-79
2022/12/19 05:41:23;;;;;;;1.83;1.73;;;;;;;2.12;78.97;101250.75;5162849;28;20059;-80
2022/12/19 05:43:55;;;;;;;0.90;0.90;;;;;;;2.25;78.76;101250.97;5167148;28;20456;-80
2022/12/19 05:46:26;;;;;;;1.95;1.85;;;;;;;2.24;79.30;101247.50;5163309;28;20069;-80
2022/12/19 05:48:56;;;;;;;1.50;1.23;;;;;;;2.22;79.63;101240.56;5146200;28;20030;-80
2022/12/19 05:51:27;;;;;;;6.50;2.70;;;;;;;2.22;80.63;101227.59;5149572;28;20039;-79
2022/12/19 05:53:59;;;;;;;1.10;1.10;;;;;;;2.31;81.15;101227.75;5152552;28;20034;-79
2022/12/19 05:56:29;;;;;;;2.35;2.25;;;;;;;2.33;80.90;101221.75;5149754;28;20053;-79
2022/12/19 05:59:00;;;;;;;2.03;1.92;;;;;;;2.38;79.98;101227.00;5169171;28;21040;-79
2022/12/19 06:01:31;;;;;;;0.77;0.77;;;;;;;2.39;80.98;101236.50;5161643;28;20035;-78
2022/12/19 06:04:03;;;;;;;1.30;1.20;;;;;;;2.44;80.22;101234.84;5170396;28;20033;-78
2022/12/19 06:06:33;;;;;;;1.23;1.13;;;;;;;2.47;80.01;101245.25;5187625;28;20061;-78
2022/12/19 06:09:04;;;;;;;3.97;2.65;;;;;;;2.42;81.20;101236.56;5175462;28;20030;-78
2022/12/19 06:11:34;;;;;;;1.45;1.40;;;;;;;2.45;80.89;101231.41;5157184;28;20146;-79
2022/12/19 06:14:05;;;;;;;1.20;1.20;;;;;;;2.54;80.45;101232.38;5164592;28;20042;-80
2022/12/19 06:16:35;;;;;;;2.30;2.20;;;;;;;2.49;80.65;101230.63;5172793;28;20137;-81
2022/12/19 06:19:06;;;;;;;1.92;1.83;;;;;;;2.54;79.83;101240.16;5154100;28;20030;-81
2022/12/19 06:21:36;;;;;;;5.50;3.45;;;;;;;2.56;80.93;101243.66;5172046;28;20064;-81
2022/12/19 06:24:07;;;;;;;1.25;1.25;;;;;;;2.56;81.30;101230.69;5151683;28;20042;-81
2022/12/19 06:26:37;;;;;;;1.48;1.38;;;;;;;2.62;80.26;101239.44;5130187;28;20058;-81
2022/12/19 06:29:08;;;;;;;1.00;1.00;;;;;;;2.60;81.05;101246.31;5133586;28;20041;-81
2022/12/19 06:31:39;;;;;;;0.88;0.88;;;;;;;2.62;80.90;101246.31;5146900;28;20046;-81
2022/12/19 06:34:09;;;;;;;1.88;1.77;;;;;;;2.64;80.39;101232.56;5159345;28;20150;-81
2022/12/19 06:36:40;;;;;;;2.38;2.28;;;;;;;2.63;81.05;101233.41;5164230;28;20030;-81
2022/12/19 06:39:13;;;;;;;2.72;1.55;;;;;;;2.72;80.04;101236.97;5157709;28;20535;-82
2022/12/19 06:44:33;;;;;;;1.02;1.02;;;;;;;2.71;80.45;101240.41;5169237;28;20065;-81
2022/12/19 06:47:03;;;;;;;1.77;1.67;;;;;;;2.69;81.16;101242.97;5155280;28;20034;-81
2022/12/19 06:49:34;;;;;;;2.35;2.25;;;;;;;2.72;80.35;101243.03;5161063;28;20033;-80
2022/12/19 06:52:04;;;;;;;1.65;1.48;;;;;;;2.70;81.51;101247.31;5149750;28;20621;-80
2022/12/19 06:54:35;;;;;;;0.82;0.82;;;;;;;2.68;81.34;101229.16;5151279;28;20760;-81
2022/12/19 06:57:06;;;;;;;1.15;1.15;;;;;;;2.72;80.85;101235.25;5148094;28;20251;-81
2022/12/19 06:59:37;;;;;;;0.52;0.52;;;;;;;2.70;81.34;101234.34;5131777;28;20086;-81
2022/12/19 07:02:07;;;;;;;1.10;1.10;;;;;;;2.73;80.85;101233.53;5168634;28;20112;-81
2022/12/19 07:04:42;;;;;;;1.02;1.02;;;;;;;2.75;80.74;101226.63;5152650;28;20026;-79
2022/12/19 07:07:12;;;;;;;23.48;2.85;;;;;;;2.76;81.23;101233.56;5149655;28;20489;-80
2022/12/19 07:09:43;;;;;;;3.97;2.58;;;;;;;2.78;80.70;101230.13;5166662;28;20066;-80
2022/12/19 07:12:13;;;;;;;2.88;2.67;;;;;;;2.78;81.52;101224.94;5161597;28;20054;-79
2022/12/19 07:14:44;;;;;;;0.88;0.88;;;;;;;2.81;80.75;101232.78;5154764;28;20046;-80
2022/12/19 07:17:15;;;;;;;0.70;0.70;;;;;;;2.83;81.25;101232.78;5145157;28;20041;-80
2022/12/19 07:19:45;;;;;;;1.67;1.60;;;;;;;2.83;81.39;101236.28;5152157;28;20030;-80
2022/12/19 07:22:16;;;;;;;1.70;1.60;;;;;;;2.86;81.11;101234.53;5128227;28;20073;-79
2022/12/19 07:24:47;;;;;;;1.10;1.08;;;;;;;2.86;81.39;101235.44;5159864;28;20075;-80
2022/12/19 07:27:17;;;;;;;1.48;1.38;;;;;;;2.86;81.79;101231.94;5134450;28;20076;-79
2022/12/19 07:29:48;;;;;;;2.55;2.45;;;;;;;2.89;82.04;101239.78;5163062;28;20046;-80
2022/12/19 07:32:18;;;;;;;1.25;1.25;;;;;;;2.90;81.99;101236.34;5162885;28;20042;-81
2022/12/19 07:34:56;;;;;;;2.25;2.10;;;;;;;2.92;82.07;101245.00;5149196;28;20053;-81
2022/12/19 07:37:27;;;;;;;0.60;0.60;;;;;;;2.99;80.93;101241.66;5125732;28;20109;-79
2022/12/19 07:39:58;;;;;;;1.73;1.63;;;;;;;2.97;81.44;101244.22;5160590;28;20215;-79
2022/12/19 07:42:29;;;;;;;1.45;1.40;;;;;;;3.01;81.81;101250.31;5159492;28;20081;-79
2022/12/19 07:45:00;;;;;;;0.68;0.68;;;;;;;3.10;81.18;101249.56;5164253;28;20449;-79
2022/12/19 07:47:30;;;;;;;0.82;0.82;;;;;;;3.07;82.80;101247.81;5162032;28;20031;-79
2022/12/19 07:50:01;;;;;;;0.70;0.70;;;;;;;3.08;82.93;101240.88;5128898;28;20038;-80
2022/12/19 07:52:31;;;;;;;0.80;0.80;;;;;;;3.12;81.93;101237.47;5146429;28;20030;-80
2022/12/19 07:55:02;;;;;;;1.27;1.23;;;;;;;3.13;82.15;101239.22;5163506;28;20633;-80
2022/12/19 07:57:32;;;;;;;0.40;0.40;;;;;;;3.13;83.26;101240.09;5164598;28;20050;-79
2022/12/19 08:00:04;;;;;;;0.98;0.98;;;;;;;3.21;82.13;101245.38;5143269;28;20089;-78
2022/12/19 08:02:35;;;;;;;1.67;1.55;;;;;;;3.18;82.42;101241.88;5156974;28;20042;-81
2022/12/19 08:05:05;;;;;;;1.77;1.63;;;;;;;3.22;83.65;101243.63;5154354;28;20026;-80
2022/12/19 08:07:36;;;;;;;1.92;1.83;;;;;;;3.18;84.30;101239.28;5146943;28;20809;-80
2022/12/19 08:10:07;;;;;;;0.82;0.82;;;;;;;3.20;83.18;101253.13;5150238;28;20030;-79
2022/12/19 08:12:38;;;;;;;0.63;0.63;;;;;;;3.22;83.26;101254.00;5142681;28;20038;-80
2022/12/19 08:15:09;;;;;;;1.27;1.23;;;;;;;3.26;82.92;101256.66;5142700;28;20041;-81
2022/12/19 08:17:39;;;;;;;1.15;1.15;;;;;;;3.30;83.12;101257.56;5158958;28;20039;-81
2022/12/19 08:20:10;;;;;;;1.17;1.17;;;;;;;3.36;82.89;101246.41;5143907;28;20035;-80
2022/12/19 08:22:41;;;;;;;0.88;0.88;;;;;;;3.42;83.34;101252.53;5146155;28;20034;-80
2022/12/19 08:25:12;;;;;;;0.55;0.55;;;;;;;3.44;83.41;101253.41;5145152;28;20035;-82
2022/12/19 08:27:42;;;;;;;0.68;0.68;;;;;;;3.50;85.01;101250.00;5141692;28;20043;-80
2022/12/19 08:30:13;;;;;;;0.77;0.77;;;;;;;3.62;85.93;101244.97;5143889;28;20037;-80
2022/12/19 08:32:44;;;;;;;0.70;0.70;;;;;;;3.72;88.76;101240.72;5124948;28;20472;-80
2022/12/19 08:35:15;;;;;;;1.08;1.08;;;;;;;3.67;87.75;101252.78;5143326;28;20061;-82
2022/12/19 08:37:45;;;;;;;0.93;0.93;;;;;;;3.71;88.12;101236.38;5151526;28;20030;-79
2022/12/19 08:40:16;;;;;;;1.08;1.00;;;;;;;3.83;88.45;101239.94;5156245;28;20029;-81
2022/12/19 08:42:46;;;;;;;0.30;0.30;;;;;;;3.85;90.21;101240.81;5140230;28;20030;-80
2022/12/19 08:45:17;;;;;;;1.20;0.70;;;;;;;3.85;89.30;101240.81;5129243;28;20034;-80
2022/12/19 08:47:47;;;;;;;0.88;0.88;;;;;;;4.00;90.54;101240.97;5155765;28;20030;-80
2022/12/19 08:50:18;;;;;;;0.50;0.50;;;;;;;4.08;90.72;101234.13;5157485;28;20626;-80
2022/12/19 08:52:48;;;;;;;0.50;0.50;;;;;;;4.03;90.57;101235.78;5145080;28;20136;-80
2022/12/19 08:55:19;;;;;;;0.85;0.85;;;;;;;4.16;90.93;101235.91;5154689;28;20639;-80
2022/12/19 08:57:49;;;;;;;1.15;1.10;;;;;;;4.27;91.89;101234.22;5133829;28;20076;-80
2022/12/19 09:00:20;;;;;;;0.73;0.73;;;;;;;4.37;92.09;101235.19;5142690;28;20465;-80
2022/12/19 09:02:51;;;;;;;0.30;0.30;;;;;;;4.34;92.17;101230.81;5141579;28;20029;-81
2022/12/19 09:05:21;;;;;;;10.00;1.42;;;;;;;4.39;92.54;101230.84;5158294;28;20038;-80
2022/12/19 09:07:52;;;;;;;0.57;0.57;;;;;;;4.45;92.01;101230.03;5131802;28;20050;-80
2022/12/19 09:10:23;;;;;;;0.30;0.30;;;;;;;4.49;92.70;101226.59;5142858;28;20164;-80
2022/12/19 09:12:53;;;;;;;0.73;0.73;;;;;;;4.50;91.82;101224.00;5123708;28;20025;-80
2022/12/19 09:15:24;;;;;;;1.35;1.30;;;;;;;4.64;91.61;101228.41;5123231;28;20436;-78
2022/12/19 09:17:55;;;;;;;0.70;0.70;;;;;;;4.62;92.41;101233.59;5127984;28;20117;-78
2022/12/19 09:20:25;;;;;;;0.50;0.50;;;;;;;4.68;92.40;101224.97;5127878;28;20034;-80
2022/12/19 09:22:56;;;;;;;1.13;1.13;;;;;;;4.70;92.86;101221.50;5168119;28;20020;-80
2022/12/19 09:25:26;;;;;;;0.68;0.68;;;;;;;4.83;93.07;101230.25;5135145;28;20076;-81
2022/12/19 09:27:57;;;;;;;0.50;0.50;;;;;;;4.80;92.39;101239.75;5128012;28;20905;-80
2022/12/19 09:30:27;;;;;;;0.63;0.63;;;;;;;4.87;93.84;101234.63;5147333;28;20038;-80
2022/12/19 09:32:58;;;;;;;0.73;0.73;;;;;;;4.89;93.41;101229.41;5161721;28;20038;-81
2022/12/19 09:35:28;;;;;;;1.02;0.98;;;;;;;4.88;92.21;101235.47;5144379;28;20093;-81
2022/12/19 09:37:59;;;;;;;0.43;0.43;;;;;;;4.93;92.60;101236.34;5141295;28;20048;-81
2022/12/19 09:40:50;;;;;;;0.68;0.68;;;;;;;5.05;92.49;101243.34;5148990;28;20058;-80
2022/12/19 09:43:42;;;;;;;0.77;0.77;;;;;;;5.14;92.38;101243.38;5139735;28;20554;-81
2022/12/19 09:46:19;;;;;;;0.52;0.52;;;;;;;5.23;92.88;101247.75;5144264;28;20872;-81
2022/12/19 09:48:54;;;;;;;1.17;1.15;;;;;;;5.18;92.18;101254.66;5132915;28;20080;-81
2022/12/19 09:51:43;;;;;;;0.40;0.40;;;;;;;5.24;92.02;101254.72;5152511;28;20517;-81
2022/12/19 09:54:14;;;;;;;0.50;0.50;;;;;;;5.28;92.55;101261.63;5159221;28;20520;-80
2022/12/19 09:56:46;;;;;;;1.75;1.15;;;;;;;5.26;91.64;101259.91;5131464;28;20034;-80
2022/12/19 09:59:40;;;;;;;0.53;0.53;;;;;;;5.26;91.45;101255.56;5160230;28;20042;-81
2022/12/19 10:02:35;;;;;;;0.77;0.77;;;;;;;5.31;90.97;101255.56;5134075;28;20294;-80
2022/12/19 10:05:12;;;;;;;0.40;0.40;;;;;;;5.35;91.48;101266.00;5157502;28;20042;-79
2022/12/19 10:07:44;;;;;;;0.40;0.40;;;;;;;5.35;90.63;101259.94;5134173;28;20918;-81
2022/12/19 10:10:21;;;;;;;0.70;0.70;;;;;;;5.46;91.27;101267.78;5132053;28;20039;-80
2022/12/19 10:12:59;;;;;;;0.93;0.93;;;;;;;5.51;91.84;101256.50;5144967;28;20439;-80
2022/12/19 10:15:51;;;;;;;0.75;0.75;;;;;;;5.47;90.94;101261.72;5151158;28;20085;-81
2022/12/19 10:18:41;;;;;;;0.55;0.55;;;;;;;5.47;90.22;101259.09;5157937;28;20104;-80
2022/12/19 10:21:17;;;;;;;0.55;0.55;;;;;;;5.47;90.33;101254.75;5128946;28;20145;-79
2022/12/19 10:24:22;;;;;;;1.10;0.90;;;;;;;5.58;90.14;101264.34;5169290;28;20069;-81
2022/12/19 10:26:59;;;;;;;0.93;0.93;;;;;;;5.53;90.46;101253.91;5134020;28;20035;-81
2022/12/19 10:29:44;;;;;;;3.30;2.05;;;;;;;5.57;90.87;101255.66;5146571;28;20050;-82
2022/12/19 10:32:18;;;;;;;1.23;1.23;;;;;;;5.60;90.18;101253.03;5151901;28;20018;-80
2022/12/19 10:34:50;;;;;;;1.77;1.67;;;;;;;5.57;88.49;101247.84;5155279;28;20034;-79
2022/12/19 10:37:28;;;;;;;0.88;0.88;;;;;;;5.56;88.53;101246.13;5157383;28;20786;-79
2022/12/19 10:40:05;;;;;;;1.90;1.80;;;;;;;5.56;88.59;101243.50;5120040;28;20037;-80
2022/12/19 10:42:50;;;;;;;10.70;3.67;;;;;;;5.62;87.66;101243.53;5126471;28;20508;-81
2022/12/19 10:45:27;;;;;;;2.53;2.35;;;;;;;5.63;87.94;101233.97;5138423;28;20030;-79
2022/12/19 10:47:57;;;;;;;0.65;0.65;;;;;;;5.58;87.12;101233.94;5163152;28;20027;-80
2022/12/19 10:50:29;;;;;;;0.82;0.82;;;;;;;5.60;86.90;101232.22;5144248;28;20061;-79
2022/12/19 10:53:02;;;;;;;1.45;1.40;;;;;;;5.56;86.35;101222.69;5164354;28;20375;-81
2022/12/19 10:55:36;;;;;;;1.73;1.63;;;;;;;5.48;87.18;101221.81;5159376;28;20133;-81
2022/12/19 10:58:22;;;;;;;1.65;1.52;;;;;;;5.40;86.98;101220.91;5144067;28;20092;-79
2022/12/19 11:00:55;;;;;;;2.45;2.28;;;;;;;5.40;87.16;101226.13;5124268;28;20103;-80
2022/12/19 11:03:26;;;;;;;1.45;1.35;;;;;;;5.36;86.82;101233.06;5157576;28;20026;-80
2022/12/19 11:05:58;;;;;;;1.75;1.65;;;;;;;5.36;86.64;101236.50;5146203;28;20027;-80
2022/12/19 11:08:33;;;;;;;1.90;1.80;;;;;;;5.37;86.95;101240.00;5154888;28;20136;-81
2022/12/19 11:11:03;;;;;;;2.33;2.15;;;;;;;5.41;86.98;101233.06;5130718;28;20038;-80
2022/12/19 11:13:46;;;;;;;1.95;1.85;;;;;;;5.43;86.05;101233.91;5161787;28;20046;-81
2022/12/19 11:16:22;;;;;;;1.92;1.83;;;;;;;5.43;86.17;101223.50;5156372;28;21060;-80
2022/12/19 11:18:53;;;;;;;2.33;2.17;;;;;;;5.46;86.43;101220.94;5171993;28;20026;-81
2022/12/19 11:21:31;;;;;;;1.30;1.23;;;;;;;5.43;85.34;101221.78;5125831;28;20441;-81
2022/12/19 11:24:10;;;;;;;1.83;1.75;;;;;;;5.36;86.30;101223.50;5147068;28;20022;-81
2022/12/19 11:26:50;;;;;;;0.43;0.43;;;;;;;5.34;86.26;101220.03;5146455;28;20035;-79
2022/12/19 11:29:36;;;;;;;0.98;0.98;;;;;;;5.41;86.05;101222.66;5141691;28;20685;-81
2022/12/19 11:32:24;;;;;;;1.60;1.52;;;;;;;5.39;86.05;101217.44;5149591;28;20049;-82
2022/12/19 11:35:00;;;;;;;2.45;1.52;;;;;;;5.34;86.59;101221.78;5130695;28;20037;-80
2022/12/19 11:37:38;;;;;;;1.25;1.20;;;;;;;5.35;86.01;101226.97;5154452;28;20038;-80
2022/12/19 11:40:39;;;;;;;0.98;0.98;;;;;;;5.40;86.15;101223.53;5161177;28;20034;-81
2022/12/19 11:43:24;;;;;;;2.88;2.70;;;;;;;5.48;85.88;101222.66;5166102;28;20050;-80
2022/12/19 11:46:35;;;;;;;2.00;1.88;;;;;;;5.52;85.06;101228.75;5160349;28;20034;-80
2022/12/19 11:49:27;;;;;;;2.25;2.05;;;;;;;5.54;85.66;101223.56;5142874;28;20045;-81
2022/12/19 11:52:17;;;;;;;0.60;0.60;;;;;;;5.48;86.20;101217.44;5155783;28;20038;-81
2022/12/19 11:55:03;;;;;;;1.33;1.25;;;;;;;5.50;86.04;101220.06;5155035;28;20022;-80
2022/12/19 11:57:36;;;;;;;0.85;0.85;;;;;;;5.50;85.65;101217.44;5154772;28;20043;-79
2022/12/19 12:00:16;;;;;;;1.17;1.05;;;;;;;5.59;85.94;101211.41;5157127;28;20563;-81
2022/12/19 12:03:24;;;;;;;2.25;2.05;;;;;;;5.68;85.22;101207.06;5138086;28;20144;-79
2022/12/19 12:05:57;;;;;;;7.15;1.75;;;;;;;5.57;86.00;101198.41;5143236;28;20172;-79
2022/12/19 12:08:57;;;;;;;1.13;1.13;;;;;;;5.63;85.45;101201.00;5152520;28;20034;-80
2022/12/19 12:11:37;;;;;;;3.80;2.47;;;;;;;5.67;85.77;101194.06;5158427;28;20053;-80
2022/12/19 12:14:26;;;;;;;3.05;1.95;;;;;;;5.71;86.10;101189.72;5156518;28;20116;-78
2022/12/19 12:17:14;;;;;;;0.73;0.73;;;;;;;5.76;86.09;101178.44;5160478;28;20438;-79
2022/12/19 12:20:00;;;;;;;0.55;0.55;;;;;;;5.82;86.16;101174.97;5150491;28;20026;-79